createdAt,value
2022-10-12T00:02:05.087Z,1.20
2022-10-12T00:04:31.670Z,1.80
2022-10-12T00:06:58.118Z,1.60
2022-10-12T00:09:24.458Z,1.45
2022-10-12T00:11:51.107Z,1.73
2022-10-12T00:14:17.487Z,1.95
2022-10-12T00:16:43.838Z,1.92
2022-10-12T00:19:13.126Z,2.33
2022-10-12T00:21:39.729Z,1.90
2022-10-12T00:24:06.334Z,2.60
2022-10-12T00:26:33.410Z,1.40
2022-10-12T00:29:01.830Z,2.28
2022-10-12T00:31:29.511Z,2.10
2022-10-12T00:33:59.659Z,1.48
2022-10-12T00:36:29.261Z,2.33
2022-10-12T00:38:56.164Z,1.90
2022-10-12T00:41:25.438Z,1.20
2022-10-12T00:43:57.883Z,1.63
2022-10-12T00:46:30.725Z,1.38
2022-10-12T00:49:19.270Z,1.73
2022-10-12T00:51:50.481Z,2.10
2022-10-12T00:56:48.380Z,1.83
2022-10-12T00:59:28.320Z,1.88
2022-10-12T01:01:55.968Z,1.92
2022-10-12T01:04:23.596Z,1.70
2022-10-12T01:06:50.716Z,1.27
2022-10-12T01:09:17.300Z,1.60
2022-10-12T01:11:43.631Z,1.75
2022-10-12T01:14:10.496Z,1.67
2022-10-12T01:17:06.417Z,2.08
2022-10-12T01:19:38.949Z,1.80
2022-10-12T01:22:09.226Z,1.85
2022-10-12T01:24:43.873Z,1.63
2022-10-12T01:27:28.277Z,1.55
2022-10-12T01:30:27.297Z,1.80
2022-10-12T01:33:14.807Z,1.60
2022-10-12T01:35:51.329Z,1.90
2022-10-12T01:38:24.293Z,1.60
2022-10-12T01:41:06.921Z,1.90
2022-10-12T01:43:39.140Z,2.13
2022-10-12T01:46:12.342Z,1.98
2022-10-12T01:48:39.715Z,1.50
2022-10-12T01:51:06.706Z,2.10
2022-10-12T01:54:03.247Z,1.90
2022-10-12T01:56:41.795Z,1.65
2022-10-12T01:59:49.663Z,1.90
2022-10-12T02:02:46.526Z,1.55
2022-10-12T02:05:28.138Z,1.67
2022-10-12T02:08:04.261Z,1.67
2022-10-12T02:10:38.536Z,1.77
2022-10-12T02:13:09.792Z,1.50
2022-10-12T02:18:05.224Z,1.42
2022-10-12T02:20:34.133Z,1.73
2022-10-12T02:23:01.827Z,1.80
2022-10-12T02:25:29.135Z,1.80
2022-10-12T02:28:03.587Z,1.80
2022-10-12T02:30:36.541Z,1.52
2022-10-12T02:33:14.923Z,1.70
2022-10-12T02:35:52.255Z,1.77
2022-10-12T02:38:25.049Z,1.58
2022-10-12T02:40:57.010Z,2.38
2022-10-12T02:43:29.365Z,2.35
2022-10-12T02:46:00.689Z,2.20
2022-10-12T02:48:29.009Z,1.52
2022-10-12T02:50:57.692Z,1.88
2022-10-12T02:53:26.173Z,1.85
2022-10-12T02:55:59.361Z,1.95
2022-10-12T02:58:25.846Z,2.53
2022-10-12T03:00:52.239Z,2.30
2022-10-12T03:03:18.655Z,2.42
2022-10-12T03:05:45.851Z,3.28
2022-10-12T03:08:12.231Z,2.45
2022-10-12T03:10:38.570Z,1.85
2022-10-12T03:13:04.887Z,2.30
2022-10-12T03:15:31.435Z,2.38
2022-10-12T03:17:57.990Z,2.50
2022-10-12T03:20:24.410Z,2.45
2022-10-12T03:22:51.911Z,2.53
2022-10-12T03:25:18.345Z,2.33
2022-10-12T03:27:44.812Z,2.40
2022-10-12T03:30:14.644Z,2.80
2022-10-12T03:32:41.085Z,2.45
2022-10-12T03:35:08.112Z,2.28
2022-10-12T03:37:34.582Z,2.97
2022-10-12T03:40:00.926Z,3.05
2022-10-12T03:42:27.263Z,2.45
2022-10-12T03:44:53.566Z,3.17
2022-10-12T03:47:19.885Z,3.05
2022-10-12T03:49:46.217Z,3.33
2022-10-12T03:52:12.593Z,2.55
2022-10-12T03:54:38.935Z,3.15
2022-10-12T03:57:05.302Z,2.78
2022-10-12T03:59:31.642Z,2.83
2022-10-12T04:01:57.951Z,3.20
2022-10-12T04:04:24.603Z,2.78
2022-10-12T04:06:50.944Z,2.30
2022-10-12T04:09:17.304Z,2.70
2022-10-12T04:11:43.621Z,2.95
2022-10-12T04:14:10.073Z,2.78
2022-10-12T04:16:36.396Z,2.60
2022-10-12T04:19:02.758Z,2.97
2022-10-12T04:21:31.038Z,3.25
2022-10-12T04:23:57.501Z,3.38
2022-10-12T04:26:23.866Z,2.95
2022-10-12T04:28:50.278Z,3.20
2022-10-12T04:31:16.669Z,2.90
2022-10-12T04:33:43.038Z,3.50
2022-10-12T04:36:10.790Z,3.13
2022-10-12T04:38:37.374Z,3.30
2022-10-12T04:41:03.813Z,3.47
2022-10-12T04:43:30.199Z,3.65
2022-10-12T04:45:58.775Z,3.58
2022-10-12T04:48:26.204Z,4.10
2022-10-12T04:50:53.064Z,3.80
2022-10-12T04:53:19.592Z,3.63
2022-10-12T04:55:45.994Z,4.00
2022-10-12T04:58:12.319Z,3.80
2022-10-12T05:00:38.712Z,3.72
2022-10-12T05:03:05.898Z,4.20
2022-10-12T05:05:34.269Z,4.13
2022-10-12T05:08:00.632Z,5.10
2022-10-12T05:10:27.026Z,4.70
2022-10-12T05:12:53.412Z,4.22
2022-10-12T05:15:19.992Z,4.65
2022-10-12T05:17:46.502Z,4.78
2022-10-12T05:20:13.115Z,4.18
2022-10-12T05:22:40.093Z,5.13
2022-10-12T05:25:13.411Z,6.00
2022-10-12T05:27:39.951Z,4.95
2022-10-12T05:30:07.460Z,4.90
2022-10-12T05:32:33.813Z,5.00
2022-10-12T05:35:00.252Z,4.13
2022-10-12T05:37:26.643Z,4.63
2022-10-12T05:39:53.019Z,4.47
2022-10-12T05:42:19.446Z,4.53
2022-10-12T05:44:45.788Z,4.35
2022-10-12T05:47:12.192Z,5.05
2022-10-12T05:49:38.521Z,4.18
2022-10-12T05:52:04.867Z,4.63
2022-10-12T05:54:31.304Z,4.47
2022-10-12T05:56:57.746Z,4.53
2022-10-12T05:59:24.089Z,4.30
2022-10-12T06:01:50.506Z,4.35
2022-10-12T06:04:16.960Z,4.45
2022-10-12T06:06:43.307Z,5.28
2022-10-12T06:09:10.007Z,4.60
2022-10-12T06:11:36.745Z,5.30
2022-10-12T06:14:03.457Z,4.90
2022-10-12T06:16:29.822Z,5.60
2022-10-12T06:18:56.255Z,5.68
2022-10-12T06:21:38.209Z,5.55
2022-10-12T06:24:05.274Z,5.93
2022-10-12T06:26:31.643Z,5.28
2022-10-12T06:28:58.153Z,5.53
2022-10-12T06:31:24.568Z,5.45
2022-10-12T06:33:50.950Z,5.38
2022-10-12T06:36:17.283Z,7.00
2022-10-12T06:38:43.615Z,5.35
2022-10-12T06:41:09.953Z,12.98
2022-10-12T06:43:36.348Z,6.45
2022-10-12T06:46:03.244Z,5.32
2022-10-12T06:48:30.045Z,5.97
2022-10-12T06:50:56.589Z,5.05
2022-10-12T06:53:23.054Z,5.00
2022-10-12T06:55:49.460Z,5.18
2022-10-12T06:58:15.821Z,5.35
2022-10-12T07:00:42.255Z,5.70
2022-10-12T07:03:12.612Z,7.38
2022-10-12T07:05:39.046Z,6.33
2022-10-12T07:08:05.454Z,6.00
2022-10-12T07:10:31.864Z,5.80
2022-10-12T07:12:58.174Z,6.43
2022-10-12T07:15:24.487Z,5.70
2022-10-12T07:17:50.866Z,5.45
2022-10-12T07:20:17.254Z,6.00
2022-10-12T07:22:46.821Z,5.72
2022-10-12T07:25:13.138Z,5.00
2022-10-12T07:27:39.900Z,5.43
2022-10-12T07:30:07.435Z,5.13
2022-10-12T07:32:33.767Z,5.10
2022-10-12T07:35:00.117Z,4.38
2022-10-12T07:37:26.506Z,5.30
2022-10-12T07:39:57.023Z,4.90
2022-10-12T07:42:24.424Z,5.00
2022-10-12T07:44:50.782Z,5.30
2022-10-12T07:47:17.695Z,4.60
2022-10-12T07:49:44.179Z,7.38
2022-10-12T07:52:10.667Z,5.38
2022-10-12T07:54:37.010Z,5.22
2022-10-12T07:57:03.466Z,6.40
2022-10-12T07:59:29.802Z,5.63
2022-10-12T08:01:56.215Z,5.05
2022-10-12T08:04:22.683Z,4.68
2022-10-12T08:06:49.092Z,4.55
2022-10-12T08:09:15.494Z,5.35
2022-10-12T08:11:42.237Z,5.15
2022-10-12T08:14:15.972Z,5.55
2022-10-12T08:16:43.954Z,5.22
2022-10-12T08:19:10.685Z,5.38
2022-10-12T08:21:37.279Z,5.05
2022-10-12T08:24:03.869Z,5.70
2022-10-12T08:26:30.441Z,5.53
2022-10-12T08:28:57.031Z,6.05
2022-10-12T08:31:23.437Z,5.75
2022-10-12T08:33:49.945Z,6.28
2022-10-12T08:36:16.407Z,5.45
2022-10-12T08:38:43.736Z,4.88
2022-10-12T08:41:31.402Z,5.45
2022-10-12T08:44:22.746Z,5.07
2022-10-12T08:46:52.382Z,4.88
2022-10-12T08:49:23.247Z,5.90
2022-10-12T08:51:55.189Z,4.75
2022-10-12T08:54:28.671Z,6.20
2022-10-12T08:56:56.970Z,4.85
2022-10-12T08:59:23.873Z,5.38
2022-10-12T09:02:13.411Z,5.25
2022-10-12T09:04:56.759Z,7.05
2022-10-12T09:07:28.002Z,6.75
2022-10-12T09:15:09.484Z,4.72
2022-10-12T09:17:41.415Z,5.40
2022-10-12T09:20:36.769Z,5.18
2022-10-12T09:23:21.513Z,4.88
2022-10-12T09:25:47.839Z,4.82
2022-10-12T09:28:29.322Z,5.10
2022-10-12T09:31:22.787Z,5.47
2022-10-12T09:33:54.413Z,6.40
2022-10-12T09:36:22.703Z,6.65
2022-10-12T09:38:50.825Z,7.15
2022-10-12T09:41:25.503Z,6.20
2022-10-12T09:43:56.033Z,6.78
2022-10-12T09:46:31.545Z,7.10
2022-10-12T09:48:59.791Z,7.75
2022-10-12T09:51:28.701Z,6.80
2022-10-12T09:53:57.771Z,6.68
2022-10-12T09:56:30.862Z,6.05
2022-10-12T09:59:02.006Z,6.63
2022-10-12T10:01:37.117Z,7.22
2022-10-12T10:04:23.121Z,6.40
2022-10-12T10:06:50.851Z,6.20
2022-10-12T10:09:29.384Z,6.57
2022-10-12T10:11:57.655Z,6.97
2022-10-12T10:14:24.895Z,6.78
2022-10-12T10:16:54.455Z,6.03
2022-10-12T10:19:24.976Z,5.85
2022-10-12T10:21:52.940Z,6.32
2022-10-12T10:24:25.878Z,6.47
2022-10-12T10:27:01.203Z,8.07
2022-10-12T10:29:43.049Z,7.15
2022-10-12T10:32:26.289Z,6.10
2022-10-12T10:35:03.263Z,6.63
2022-10-12T10:37:30.833Z,5.97
2022-10-12T10:39:58.801Z,5.43
2022-10-12T10:42:28.530Z,5.93
2022-10-12T10:44:59.592Z,6.30
2022-10-12T10:47:26.440Z,6.53
2022-10-12T10:50:06.085Z,5.93
2022-10-12T10:52:35.638Z,5.93
2022-10-12T10:55:11.343Z,6.20
2022-10-12T10:57:42.779Z,6.60
2022-10-12T11:00:37.844Z,5.53
2022-10-12T11:05:53.963Z,6.47
2022-10-12T11:08:25.043Z,6.13
2022-10-12T11:11:03.390Z,5.53
2022-10-12T11:13:37.980Z,5.82
2022-10-12T11:16:32.106Z,6.75
2022-10-12T11:19:02.318Z,5.75
2022-10-12T11:22:00.323Z,5.57
2022-10-12T11:24:36.200Z,4.95
2022-10-12T11:27:31.235Z,5.50
2022-10-12T11:30:09.662Z,6.05
2022-10-12T11:32:44.992Z,5.10
2022-10-12T11:35:28.026Z,4.95
2022-10-12T11:38:04.888Z,5.30
2022-10-12T11:41:09.144Z,5.00
2022-10-12T11:43:52.528Z,5.30
2022-10-12T11:46:23.694Z,5.57
2022-10-12T11:51:21.498Z,4.22
2022-10-12T11:54:04.497Z,3.65
2022-10-12T11:56:30.900Z,4.15
2022-10-12T11:59:15.008Z,4.00
2022-10-12T12:02:23.767Z,4.20
2022-10-12T12:04:51.062Z,3.97
2022-10-12T12:07:47.579Z,3.70
2022-10-12T12:10:37.223Z,3.75
2022-10-12T12:13:11.135Z,4.22
2022-10-12T12:16:00.875Z,4.20
2022-10-12T12:19:08.626Z,3.45
2022-10-12T12:22:09.766Z,3.42
2022-10-12T12:24:39.019Z,2.47
2022-10-12T12:27:38.979Z,2.92
2022-10-12T12:30:34.219Z,2.67
2022-10-12T12:33:25.382Z,2.53
2022-10-12T12:35:57.747Z,3.13
2022-10-12T12:38:28.810Z,3.10
2022-10-12T12:41:02.312Z,2.90
2022-10-12T12:43:28.581Z,2.60
2022-10-12T12:46:01.079Z,3.03
2022-10-12T12:48:39.707Z,2.80
2022-10-12T12:51:10.822Z,2.83
2022-10-12T12:53:42.404Z,2.83
2022-10-12T12:56:18.728Z,3.22
2022-10-12T12:59:32.209Z,3.00
2022-10-12T13:02:29.816Z,2.35
2022-10-12T13:05:21.880Z,2.45
2022-10-12T13:08:04.262Z,2.88
2022-10-12T13:10:33.523Z,2.72
2022-10-12T13:13:38.108Z,2.80
2022-10-12T13:17:30.188Z,2.58
2022-10-12T13:19:24.015Z,2.78
2022-10-12T13:21:54.280Z,2.75
2022-10-12T13:24:31.750Z,2.92
2022-10-12T13:27:17.775Z,3.00
2022-10-12T13:30:04.511Z,2.42
2022-10-12T13:32:44.509Z,3.05
2022-10-12T13:35:36.725Z,3.03
2022-10-12T13:38:22.761Z,3.40
2022-10-12T13:41:07.325Z,3.80
2022-10-12T13:43:42.722Z,3.58
2022-10-12T13:46:33.821Z,3.60
2022-10-12T13:49:01.925Z,3.90
2022-10-12T13:51:30.563Z,3.88
2022-10-12T13:53:57.737Z,4.10
2022-10-12T13:56:27.944Z,3.70
2022-10-12T13:59:00.721Z,4.05
2022-10-12T14:01:27.421Z,4.40
2022-10-12T14:04:03.550Z,3.92
2022-10-12T14:06:34.175Z,3.70
2022-10-12T14:09:18.950Z,3.50
2022-10-12T14:11:46.563Z,3.65
2022-10-12T14:14:23.864Z,3.80
2022-10-12T14:16:51.520Z,4.20
2022-10-12T14:19:36.112Z,3.55
2022-10-12T14:22:03.055Z,3.85
2022-10-12T14:24:30.325Z,4.28
2022-10-12T14:27:05.245Z,4.30
2022-10-12T14:29:37.306Z,3.80
2022-10-12T14:32:07.232Z,3.97
2022-10-12T14:34:46.358Z,4.53
2022-10-12T14:37:15.734Z,3.97
2022-10-12T14:39:47.325Z,4.10
2022-10-12T14:42:26.839Z,4.53
2022-10-12T14:44:54.662Z,4.00
2022-10-12T14:47:23.683Z,4.15
2022-10-12T14:49:52.691Z,4.15
2022-10-12T14:52:23.198Z,4.43
2022-10-12T14:54:58.157Z,4.15
2022-10-12T14:57:29.328Z,4.30
2022-10-12T15:02:28.534Z,4.68
2022-10-12T15:05:01.453Z,5.05
2022-10-12T15:07:33.031Z,4.10
2022-10-12T15:10:00.688Z,4.60
2022-10-12T15:12:30.324Z,5.25
2022-10-12T15:15:00.175Z,5.85
2022-10-12T15:17:27.004Z,4.75
2022-10-12T15:19:53.782Z,5.55
2022-10-12T15:22:22.919Z,5.15
2022-10-12T15:24:50.195Z,5.95
2022-10-12T15:27:16.572Z,4.82
2022-10-12T15:29:43.010Z,4.38
2022-10-12T15:32:14.755Z,4.38
2022-10-12T15:34:41.361Z,4.82
2022-10-12T15:37:12.049Z,4.97
2022-10-12T15:39:38.794Z,4.40
2022-10-12T15:42:05.235Z,5.38
2022-10-12T15:44:31.744Z,4.65
2022-10-12T15:47:00.481Z,5.38
2022-10-12T15:49:26.886Z,4.80
2022-10-12T15:51:54.982Z,5.00
2022-10-12T15:54:21.595Z,4.30
2022-10-12T15:56:47.961Z,3.92
2022-10-12T15:59:14.296Z,4.15
2022-10-12T16:01:42.981Z,4.03
2022-10-12T16:04:13.628Z,4.70
2022-10-12T16:06:40.245Z,10.30
2022-10-12T16:09:06.781Z,6.28
2022-10-12T16:11:33.206Z,6.65
2022-10-12T16:13:59.585Z,6.85
2022-10-12T16:16:26.124Z,6.00
2022-10-12T16:18:53.808Z,4.75
2022-10-12T16:21:20.235Z,6.28
2022-10-12T16:23:46.605Z,11.80
2022-10-12T16:26:14.972Z,4.68
2022-10-12T16:28:41.877Z,4.85
2022-10-12T16:31:15.209Z,5.35
2022-10-12T16:33:42.025Z,6.78
2022-10-12T16:36:13.827Z,8.00
2022-10-12T16:38:40.803Z,7.93
2022-10-12T16:41:11.859Z,6.32
2022-10-12T16:43:38.793Z,6.35
2022-10-12T16:46:05.827Z,6.72
2022-10-12T16:48:32.390Z,5.35
2022-10-12T16:50:58.878Z,5.40
2022-10-12T16:53:25.398Z,4.15
2022-10-12T16:55:52.357Z,4.60
2022-10-12T16:58:18.736Z,4.68
2022-10-12T17:00:45.187Z,4.25
2022-10-12T17:03:13.858Z,4.93
2022-10-12T17:05:42.760Z,5.38
2022-10-12T17:08:14.981Z,5.28
2022-10-12T17:10:43.838Z,5.45
2022-10-12T17:13:10.691Z,5.35
2022-10-12T17:15:41.315Z,5.68
2022-10-12T17:18:08.293Z,5.47
2022-10-12T17:20:35.604Z,4.72
2022-10-12T17:23:02.004Z,4.45
2022-10-12T17:25:28.339Z,4.63
2022-10-12T17:27:54.704Z,4.35
2022-10-12T17:30:21.219Z,3.97
2022-10-12T17:32:47.548Z,3.78
2022-10-12T17:35:13.903Z,3.33
2022-10-12T17:37:40.253Z,4.20
2022-10-12T17:40:09.252Z,3.97
2022-10-12T17:42:35.628Z,4.60
2022-10-12T17:45:02.005Z,4.55
2022-10-12T17:47:28.323Z,5.70
2022-10-12T17:49:54.653Z,6.10
2022-10-12T17:52:20.978Z,4.43
2022-10-12T17:54:47.275Z,4.22
2022-10-12T17:57:13.844Z,4.25
2022-10-12T17:59:40.514Z,3.85
2022-10-12T18:02:09.620Z,4.18
2022-10-12T18:04:36.319Z,4.18
2022-10-12T18:07:02.810Z,4.60
2022-10-12T18:09:29.209Z,4.18
2022-10-12T18:11:55.560Z,3.75
2022-10-12T18:14:21.949Z,4.13
2022-10-12T18:16:48.243Z,5.18
2022-10-12T18:19:14.946Z,4.93
2022-10-12T18:21:41.553Z,4.93
2022-10-12T18:24:16.115Z,4.07
2022-10-12T18:26:47.085Z,4.40
2022-10-12T18:29:13.740Z,4.63
2022-10-12T18:31:40.217Z,4.28
2022-10-12T18:34:06.790Z,4.32
2022-10-12T18:36:33.525Z,4.32
2022-10-12T18:39:01.505Z,4.45
2022-10-12T18:41:28.174Z,4.30
2022-10-12T18:43:57.590Z,4.63
2022-10-12T18:46:26.267Z,4.97
2022-10-12T18:48:52.728Z,4.75
2022-10-12T18:51:30.676Z,5.10
2022-10-12T18:53:57.723Z,4.35
2022-10-12T18:56:24.392Z,4.35
2022-10-12T18:58:51.521Z,4.38
2022-10-12T19:01:24.236Z,4.88
2022-10-12T19:03:51.683Z,4.47
2022-10-12T19:06:21.145Z,5.38
2022-10-12T19:08:48.210Z,5.07
2022-10-12T19:11:17.423Z,4.88
2022-10-12T19:13:44.697Z,4.70
2022-10-12T19:16:14.101Z,4.78
2022-10-12T19:18:41.970Z,5.07
2022-10-12T19:21:11.763Z,4.65
2022-10-12T19:23:38.401Z,4.28
2022-10-12T19:26:06.961Z,4.50
2022-10-12T19:28:34.035Z,5.00
2022-10-12T19:31:01.310Z,4.55
2022-10-12T19:33:29.116Z,4.35
2022-10-12T19:35:55.589Z,5.13
2022-10-12T19:38:21.943Z,4.78
2022-10-12T19:40:50.726Z,5.10
2022-10-12T19:43:17.131Z,4.85
2022-10-12T19:45:44.162Z,5.00
2022-10-12T19:48:11.288Z,5.30
2022-10-12T19:50:37.938Z,5.50
2022-10-12T19:53:04.599Z,5.18
2022-10-12T19:55:33.850Z,4.95
2022-10-12T19:58:01.294Z,5.10
2022-10-12T20:00:27.658Z,4.72
2022-10-12T20:02:54.117Z,4.90
2022-10-12T20:05:20.526Z,4.90
2022-10-12T20:07:46.850Z,5.28
2022-10-12T20:10:13.179Z,5.35
2022-10-12T20:12:39.510Z,5.40
2022-10-12T20:15:06.669Z,5.45
2022-10-12T20:17:33.048Z,5.15
2022-10-12T20:19:59.400Z,5.55
2022-10-12T20:22:25.751Z,5.10
2022-10-12T20:24:52.069Z,4.63
2022-10-12T20:27:18.403Z,5.53
2022-10-12T20:29:45.005Z,5.40
2022-10-12T20:32:11.370Z,6.18
2022-10-12T20:34:37.726Z,5.30
2022-10-12T20:37:04.059Z,4.95
2022-10-12T20:39:30.409Z,5.28
2022-10-12T20:41:56.844Z,5.30
2022-10-12T20:44:23.224Z,5.32
2022-10-12T20:46:50.237Z,5.47
2022-10-12T20:49:16.803Z,5.22
2022-10-12T20:51:44.382Z,5.30
2022-10-12T20:54:15.618Z,5.72
2022-10-12T20:59:10.391Z,5.53
2022-10-12T21:01:37.161Z,6.03
2022-10-12T21:04:03.527Z,5.15
2022-10-12T21:06:29.919Z,5.38
2022-10-12T21:08:57.390Z,5.05
2022-10-12T21:11:24.509Z,5.20
2022-10-12T21:13:51.132Z,5.78
2022-10-12T21:16:18.515Z,6.10
2022-10-12T21:18:44.924Z,5.55
2022-10-12T21:21:16.697Z,6.18
2022-10-12T21:23:45.582Z,6.28
2022-10-12T21:26:14.285Z,6.38
2022-10-12T21:28:40.960Z,6.18
2022-10-12T21:31:08.315Z,6.38
2022-10-12T21:33:35.760Z,6.20
2022-10-12T21:36:09.508Z,5.95
2022-10-12T21:38:36.240Z,5.93
2022-10-12T21:41:03.438Z,6.55
2022-10-12T21:43:29.777Z,5.75
2022-10-12T21:46:00.843Z,6.18
2022-10-12T21:48:27.170Z,6.00
2022-10-12T21:51:12.478Z,5.72
2022-10-12T21:53:40.205Z,6.22
2022-10-12T21:56:08.759Z,6.13
2022-10-12T21:58:35.214Z,5.97
2022-10-12T22:01:13.650Z,6.07
2022-10-12T22:03:41.612Z,6.22
2022-10-12T22:06:13.371Z,6.07
2022-10-12T22:08:39.715Z,5.82
2022-10-12T22:11:07.976Z,5.35
2022-10-12T22:13:34.961Z,5.75
2022-10-12T22:16:07.562Z,6.30
2022-10-12T22:18:34.841Z,6.45
2022-10-12T22:21:13.148Z,5.60
2022-10-12T22:23:39.552Z,5.43
2022-10-12T22:26:10.409Z,5.57
2022-10-12T22:28:36.829Z,6.25
2022-10-12T22:31:11.056Z,5.35
2022-10-12T22:33:38.517Z,5.65
2022-10-12T22:36:06.924Z,5.60
2022-10-12T22:38:34.604Z,5.40
2022-10-12T22:41:03.807Z,5.63
2022-10-12T22:43:30.874Z,5.68
2022-10-12T22:45:57.830Z,5.35
2022-10-12T22:48:25.356Z,5.60
2022-10-12T22:50:52.110Z,5.45
2022-10-12T22:53:20.387Z,5.68
2022-10-12T22:55:47.083Z,5.22
2022-10-12T22:58:14.132Z,5.82
2022-10-12T23:00:40.536Z,5.35
2022-10-12T23:03:07.533Z,5.50
2022-10-12T23:05:33.931Z,5.25
2022-10-12T23:08:00.243Z,5.28
2022-10-12T23:10:26.624Z,5.15
2022-10-12T23:12:52.973Z,5.25
2022-10-12T23:15:19.334Z,5.28
2022-10-12T23:17:45.895Z,5.68
2022-10-12T23:20:12.208Z,5.82
2022-10-12T23:22:38.518Z,5.03
2022-10-12T23:25:05.291Z,5.18
2022-10-12T23:27:31.610Z,5.53
2022-10-12T23:29:57.911Z,5.45
2022-10-12T23:32:24.307Z,5.20
2022-10-12T23:34:50.602Z,5.30
2022-10-12T23:37:16.915Z,4.63
2022-10-12T23:39:43.212Z,5.60
2022-10-12T23:42:09.556Z,5.40
2022-10-12T23:44:35.871Z,6.60
2022-10-12T23:47:02.179Z,5.13
2022-10-12T23:49:28.486Z,5.00
2022-10-12T23:51:54.820Z,5.50
2022-10-12T23:54:21.202Z,5.40
2022-10-12T23:56:47.501Z,5.45
2022-10-12T23:59:13.808Z,4.82
